sensor_id;sensor_type;location;lat;lon;timestamp;temperature;humidity
18260;DHT22;9256;52.236;5.712;2023-08-01T00:00:37;15.90;99.90
18260;DHT22;9256;52.236;5.712;2023-08-01T00:03:04;15.90;99.90
18260;DHT22;9256;52.236;5.712;2023-08-01T00:05:31;15.90;99.90
18260;DHT22;9256;52.236;5.712;2023-08-01T00:07:58;15.80;99.90
18260;DHT22;9256;52.236;5.712;2023-08-01T00:10:26;15.80;99.90
18260;DHT22;9256;52.236;5.712;2023-08-01T00:12:53;15.80;99.90
18260;DHT22;9256;52.236;5.712;2023-08-01T00:15:20;15.80;99.90
18260;DHT22;9256;52.236;5.712;2023-08-01T00:17:47;15.70;99.90
18260;DHT22;9256;52.236;5.712;2023-08-01T00:20:14;15.70;99.90
18260;DHT22;9256;52.236;5.712;2023-08-01T00:22:40;15.70;99.90
18260;DHT22;9256;52.236;5.712;2023-08-01T00:25:08;15.70;99.90
18260;DHT22;9256;52.236;5.712;2023-08-01T00:27:36;15.70;99.90
18260;DHT22;9256;52.236;5.712;2023-08-01T00:30:04;15.70;99.90
18260;DHT22;9256;52.236;5.712;2023-08-01T00:32:31;15.60;99.90
18260;DHT22;9256;52.236;5.712;2023-08-01T00:34:58;15.60;99.90
18260;DHT22;9256;52.236;5.712;2023-08-01T00:37:25;15.60;99.90
18260;DHT22;9256;52.236;5.712;2023-08-01T00:39:52;15.70;99.90
18260;DHT22;9256;52.236;5.712;2023-08-01T00:42:19;15.60;99.90
18260;DHT22;9256;52.236;5.712;2023-08-01T00:44:47;15.60;99.90
18260;DHT22;9256;52.236;5.712;2023-08-01T00:47:15;15.60;99.90
18260;DHT22;9256;52.236;5.712;2023-08-01T00:49:42;15.60;99.90
18260;DHT22;9256;52.236;5.712;2023-08-01T00:52:10;15.70;99.90
18260;DHT22;9256;52.236;5.712;2023-08-01T00:54:37;15.60;99.90
18260;DHT22;9256;52.236;5.712;2023-08-01T00:57:05;15.50;99.90
18260;DHT22;9256;52.236;5.712;2023-08-01T00:59:32;15.50;99.90
18260;DHT22;9256;52.236;5.712;2023-08-01T01:02:02;15.50;99.90
18260;DHT22;9256;52.236;5.712;2023-08-01T01:04:30;15.40;99.90
18260;DHT22;9256;52.236;5.712;2023-08-01T01:06:59;15.30;99.90
18260;DHT22;9256;52.236;5.712;2023-08-01T01:09:28;15.30;99.90
18260;DHT22;9256;52.236;5.712;2023-08-01T01:11:57;15.20;99.90
18260;DHT22;9256;52.236;5.712;2023-08-01T01:14:24;15.10;99.90
18260;DHT22;9256;52.236;5.712;2023-08-01T01:16:51;15.10;99.90
18260;DHT22;9256;52.236;5.712;2023-08-01T01:19:19;15.00;99.90
18260;DHT22;9256;52.236;5.712;2023-08-01T01:21:48;15.00;99.90
18260;DHT22;9256;52.236;5.712;2023-08-01T01:24:16;15.00;99.90
18260;DHT22;9256;52.236;5.712;2023-08-01T01:26:45;15.10;99.90
18260;DHT22;9256;52.236;5.712;2023-08-01T01:29:13;15.00;99.90
18260;DHT22;9256;52.236;5.712;2023-08-01T01:31:41;15.00;99.90
18260;DHT22;9256;52.236;5.712;2023-08-01T01:34:08;14.90;99.90
18260;DHT22;9256;52.236;5.712;2023-08-01T01:36:35;14.80;99.90
18260;DHT22;9256;52.236;5.712;2023-08-01T01:39:04;14.90;99.90
18260;DHT22;9256;52.236;5.712;2023-08-01T01:41:30;14.90;99.90
18260;DHT22;9256;52.236;5.712;2023-08-01T01:43:57;14.80;99.90
18260;DHT22;9256;52.236;5.712;2023-08-01T01:46:24;14.80;99.90
18260;DHT22;9256;52.236;5.712;2023-08-01T01:48:51;14.90;99.90
18260;DHT22;9256;52.236;5.712;2023-08-01T01:51:19;14.80;99.90
18260;DHT22;9256;52.236;5.712;2023-08-01T01:53:46;14.80;99.90
18260;DHT22;9256;52.236;5.712;2023-08-01T01:56:14;14.70;99.90
18260;DHT22;9256;52.236;5.712;2023-08-01T01:58:41;14.70;99.90
18260;DHT22;9256;52.236;5.712;2023-08-01T02:01:08;14.70;99.90
18260;DHT22;9256;52.236;5.712;2023-08-01T02:03:35;14.70;99.90
18260;DHT22;9256;52.236;5.712;2023-08-01T02:06:02;14.80;99.90
18260;DHT22;9256;52.236;5.712;2023-08-01T02:08:29;14.70;99.90
18260;DHT22;9256;52.236;5.712;2023-08-01T02:10:56;14.70;99.90
18260;DHT22;9256;52.236;5.712;2023-08-01T02:13:26;14.70;99.90
18260;DHT22;9256;52.236;5.712;2023-08-01T02:15:53;14.70;99.90
18260;DHT22;9256;52.236;5.712;2023-08-01T02:18:20;14.70;99.90
18260;DHT22;9256;52.236;5.712;2023-08-01T02:20:47;14.50;99.90
18260;DHT22;9256;52.236;5.712;2023-08-01T02:23:14;14.60;99.90
18260;DHT22;9256;52.236;5.712;2023-08-01T02:25:41;14.60;99.90
18260;DHT22;9256;52.236;5.712;2023-08-01T02:28:08;14.50;99.90
18260;DHT22;9256;52.236;5.712;2023-08-01T02:30:37;14.50;99.90
18260;DHT22;9256;52.236;5.712;2023-08-01T02:33:04;14.50;99.90
18260;DHT22;9256;52.236;5.712;2023-08-01T02:35:31;14.50;99.90
18260;DHT22;9256;52.236;5.712;2023-08-01T02:37:58;14.50;99.90
18260;DHT22;9256;52.236;5.712;2023-08-01T02:40:24;14.60;99.90
18260;DHT22;9256;52.236;5.712;2023-08-01T02:42:52;14.50;99.90
18260;DHT22;9256;52.236;5.712;2023-08-01T02:45:19;14.40;99.90
18260;DHT22;9256;52.236;5.712;2023-08-01T02:47:47;14.40;99.90
18260;DHT22;9256;52.236;5.712;2023-08-01T02:50:14;14.50;99.90
18260;DHT22;9256;52.236;5.712;2023-08-01T02:52:41;14.50;99.90
18260;DHT22;9256;52.236;5.712;2023-08-01T02:55:08;14.50;99.90
18260;DHT22;9256;52.236;5.712;2023-08-01T02:57:36;14.50;99.90
18260;DHT22;9256;52.236;5.712;2023-08-01T03:00:03;14.50;99.90
18260;DHT22;9256;52.236;5.712;2023-08-01T03:02:31;14.60;99.90
18260;DHT22;9256;52.236;5.712;2023-08-01T03:05:00;14.70;99.90
18260;DHT22;9256;52.236;5.712;2023-08-01T03:07:30;14.70;99.90
18260;DHT22;9256;52.236;5.712;2023-08-01T03:09:57;14.80;99.90
18260;DHT22;9256;52.236;5.712;2023-08-01T03:12:24;14.80;99.90
18260;DHT22;9256;52.236;5.712;2023-08-01T03:14:51;14.90;99.90
18260;DHT22;9256;52.236;5.712;2023-08-01T03:17:18;14.90;99.90
18260;DHT22;9256;52.236;5.712;2023-08-01T03:19:44;15.00;99.90
18260;DHT22;9256;52.236;5.712;2023-08-01T03:22:13;15.00;99.90
18260;DHT22;9256;52.236;5.712;2023-08-01T03:24:40;15.00;99.90
18260;DHT22;9256;52.236;5.712;2023-08-01T03:27:07;15.00;99.90
18260;DHT22;9256;52.236;5.712;2023-08-01T03:29:33;15.00;99.90
18260;DHT22;9256;52.236;5.712;2023-08-01T03:32:00;15.10;99.90
18260;DHT22;9256;52.236;5.712;2023-08-01T03:34:27;15.00;99.90
18260;DHT22;9256;52.236;5.712;2023-08-01T03:36:54;15.00;99.90
18260;DHT22;9256;52.236;5.712;2023-08-01T03:39:23;15.00;99.90
18260;DHT22;9256;52.236;5.712;2023-08-01T03:41:49;14.90;99.90
18260;DHT22;9256;52.236;5.712;2023-08-01T03:44:16;14.90;99.90
18260;DHT22;9256;52.236;5.712;2023-08-01T03:46:43;15.00;99.90
18260;DHT22;9256;52.236;5.712;2023-08-01T03:49:10;15.00;99.90
18260;DHT22;9256;52.236;5.712;2023-08-01T03:51:37;15.10;99.90
18260;DHT22;9256;52.236;5.712;2023-08-01T03:54:04;15.10;99.90
18260;DHT22;9256;52.236;5.712;2023-08-01T03:56:33;15.10;99.90
18260;DHT22;9256;52.236;5.712;2023-08-01T03:59:00;15.00;99.90
18260;DHT22;9256;52.236;5.712;2023-08-01T04:01:30;15.00;99.90
18260;DHT22;9256;52.236;5.712;2023-08-01T04:03:56;15.00;99.90
18260;DHT22;9256;52.236;5.712;2023-08-01T04:06:23;15.00;99.90
18260;DHT22;9256;52.236;5.712;2023-08-01T04:08:50;15.10;99.90
18260;DHT22;9256;52.236;5.712;2023-08-01T04:11:18;15.00;99.90
18260;DHT22;9256;52.236;5.712;2023-08-01T04:13:46;15.00;99.90
18260;DHT22;9256;52.236;5.712;2023-08-01T04:16:13;15.00;99.90
18260;DHT22;9256;52.236;5.712;2023-08-01T04:18:40;14.90;99.90
18260;DHT22;9256;52.236;5.712;2023-08-01T04:21:07;14.90;99.90
18260;DHT22;9256;52.236;5.712;2023-08-01T04:23:34;14.90;99.90
18260;DHT22;9256;52.236;5.712;2023-08-01T04:26:01;15.00;99.90
18260;DHT22;9256;52.236;5.712;2023-08-01T04:28:31;14.90;99.90
18260;DHT22;9256;52.236;5.712;2023-08-01T04:31:00;14.90;99.90
18260;DHT22;9256;52.236;5.712;2023-08-01T04:33:27;15.00;99.90
18260;DHT22;9256;52.236;5.712;2023-08-01T04:35:56;14.90;99.90
18260;DHT22;9256;52.236;5.712;2023-08-01T04:38:23;14.90;99.90
18260;DHT22;9256;52.236;5.712;2023-08-01T04:40:50;14.90;99.90
18260;DHT22;9256;52.236;5.712;2023-08-01T04:43:17;14.90;99.90
18260;DHT22;9256;52.236;5.712;2023-08-01T04:45:43;14.90;99.90
18260;DHT22;9256;52.236;5.712;2023-08-01T04:48:12;14.90;99.90
18260;DHT22;9256;52.236;5.712;2023-08-01T04:50:39;14.90;99.90
18260;DHT22;9256;52.236;5.712;2023-08-01T04:53:05;15.00;99.90
18260;DHT22;9256;52.236;5.712;2023-08-01T04:55:33;15.10;99.90
18260;DHT22;9256;52.236;5.712;2023-08-01T04:57:59;15.10;99.90
18260;DHT22;9256;52.236;5.712;2023-08-01T05:00:26;15.10;99.90
18260;DHT22;9256;52.236;5.712;2023-08-01T05:02:53;15.10;99.90
18260;DHT22;9256;52.236;5.712;2023-08-01T05:05:21;15.10;99.90
18260;DHT22;9256;52.236;5.712;2023-08-01T05:07:48;15.20;99.90
18260;DHT22;9256;52.236;5.712;2023-08-01T05:10:15;15.20;99.90
18260;DHT22;9256;52.236;5.712;2023-08-01T05:12:42;15.20;99.90
18260;DHT22;9256;52.236;5.712;2023-08-01T05:15:09;15.20;99.90
18260;DHT22;9256;52.236;5.712;2023-08-01T05:17:38;15.30;99.90
18260;DHT22;9256;52.236;5.712;2023-08-01T05:20:06;15.30;99.90
18260;DHT22;9256;52.236;5.712;2023-08-01T05:22:35;15.40;99.90
18260;DHT22;9256;52.236;5.712;2023-08-01T05:25:01;15.70;99.90
18260;DHT22;9256;52.236;5.712;2023-08-01T05:27:30;15.70;99.90
18260;DHT22;9256;52.236;5.712;2023-08-01T05:29:57;15.80;99.90
18260;DHT22;9256;52.236;5.712;2023-08-01T05:32:24;15.90;99.90
18260;DHT22;9256;52.236;5.712;2023-08-01T05:34:51;15.90;99.90
18260;DHT22;9256;52.236;5.712;2023-08-01T05:37:18;15.90;99.90
18260;DHT22;9256;52.236;5.712;2023-08-01T05:39:46;15.80;99.90
18260;DHT22;9256;52.236;5.712;2023-08-01T05:42:13;15.80;99.90
18260;DHT22;9256;52.236;5.712;2023-08-01T05:44:40;15.80;99.90
18260;DHT22;9256;52.236;5.712;2023-08-01T05:47:06;15.80;99.90
18260;DHT22;9256;52.236;5.712;2023-08-01T05:49:33;15.90;99.90
18260;DHT22;9256;52.236;5.712;2023-08-01T05:52:00;15.90;99.90
18260;DHT22;9256;52.236;5.712;2023-08-01T05:54:27;15.90;99.90
18260;DHT22;9256;52.236;5.712;2023-08-01T05:56:55;16.00;99.90
18260;DHT22;9256;52.236;5.712;2023-08-01T05:59:22;16.00;99.90
18260;DHT22;9256;52.236;5.712;2023-08-01T06:01:49;16.00;99.90
18260;DHT22;9256;52.236;5.712;2023-08-01T06:04:16;16.00;99.90
18260;DHT22;9256;52.236;5.712;2023-08-01T06:06:43;16.10;99.90
18260;DHT22;9256;52.236;5.712;2023-08-01T06:09:10;16.10;99.90
18260;DHT22;9256;52.236;5.712;2023-08-01T06:11:37;16.20;99.90
18260;DHT22;9256;52.236;5.712;2023-08-01T06:14:05;16.30;99.90
18260;DHT22;9256;52.236;5.712;2023-08-01T06:16:32;16.40;99.90
18260;DHT22;9256;52.236;5.712;2023-08-01T06:18:59;16.50;99.90
18260;DHT22;9256;52.236;5.712;2023-08-01T06:21:26;16.60;99.90
18260;DHT22;9256;52.236;5.712;2023-08-01T06:23:53;16.60;99.90
18260;DHT22;9256;52.236;5.712;2023-08-01T06:26:20;16.70;99.90
18260;DHT22;9256;52.236;5.712;2023-08-01T06:28:46;16.70;99.90
18260;DHT22;9256;52.236;5.712;2023-08-01T06:31:15;16.70;99.90
18260;DHT22;9256;52.236;5.712;2023-08-01T06:33:42;16.60;99.90
18260;DHT22;9256;52.236;5.712;2023-08-01T06:36:09;16.70;99.90
18260;DHT22;9256;52.236;5.712;2023-08-01T06:38:36;16.90;99.90
18260;DHT22;9256;52.236;5.712;2023-08-01T06:41:03;17.00;99.90
18260;DHT22;9256;52.236;5.712;2023-08-01T06:43:30;17.10;99.90
18260;DHT22;9256;52.236;5.712;2023-08-01T06:45:56;17.20;99.90
18260;DHT22;9256;52.236;5.712;2023-08-01T06:48:25;17.20;99.90
18260;DHT22;9256;52.236;5.712;2023-08-01T06:50:52;17.30;99.90
18260;DHT22;9256;52.236;5.712;2023-08-01T06:53:19;17.20;99.90
18260;DHT22;9256;52.236;5.712;2023-08-01T06:55:48;17.10;99.90
18260;DHT22;9256;52.236;5.712;2023-08-01T06:58:16;16.90;99.90
18260;DHT22;9256;52.236;5.712;2023-08-01T07:00:43;16.80;99.90
18260;DHT22;9256;52.236;5.712;2023-08-01T07:03:13;16.70;99.90
18260;DHT22;9256;52.236;5.712;2023-08-01T07:05:41;16.70;99.90
18260;DHT22;9256;52.236;5.712;2023-08-01T07:08:08;16.80;99.90
18260;DHT22;9256;52.236;5.712;2023-08-01T07:10:35;17.00;99.90
18260;DHT22;9256;52.236;5.712;2023-08-01T07:13:02;17.20;99.90
18260;DHT22;9256;52.236;5.712;2023-08-01T07:15:30;17.30;99.90
18260;DHT22;9256;52.236;5.712;2023-08-01T07:17:57;17.50;99.90
18260;DHT22;9256;52.236;5.712;2023-08-01T07:20:24;17.60;99.90
18260;DHT22;9256;52.236;5.712;2023-08-01T07:22:52;17.60;99.90
18260;DHT22;9256;52.236;5.712;2023-08-01T07:25:19;17.70;99.90
18260;DHT22;9256;52.236;5.712;2023-08-01T07:27:46;17.80;99.90
18260;DHT22;9256;52.236;5.712;2023-08-01T07:30:13;18.00;99.90
18260;DHT22;9256;52.236;5.712;2023-08-01T07:32:40;18.10;99.90
18260;DHT22;9256;52.236;5.712;2023-08-01T07:35:09;18.40;99.90
18260;DHT22;9256;52.236;5.712;2023-08-01T07:37:36;18.30;99.90
18260;DHT22;9256;52.236;5.712;2023-08-01T07:40:05;18.30;99.90
18260;DHT22;9256;52.236;5.712;2023-08-01T07:42:32;18.20;99.90
18260;DHT22;9256;52.236;5.712;2023-08-01T07:45:02;18.20;99.90
18260;DHT22;9256;52.236;5.712;2023-08-01T07:47:30;18.30;99.90
18260;DHT22;9256;52.236;5.712;2023-08-01T07:49:56;18.30;99.90
18260;DHT22;9256;52.236;5.712;2023-08-01T07:52:23;18.40;99.90
18260;DHT22;9256;52.236;5.712;2023-08-01T07:54:50;18.50;99.90
18260;DHT22;9256;52.236;5.712;2023-08-01T07:57:20;18.40;99.90
18260;DHT22;9256;52.236;5.712;2023-08-01T07:59:47;18.20;99.90
18260;DHT22;9256;52.236;5.712;2023-08-01T08:02:14;18.00;99.90
18260;DHT22;9256;52.236;5.712;2023-08-01T08:04:41;17.90;99.90
18260;DHT22;9256;52.236;5.712;2023-08-01T08:07:07;17.80;99.90
18260;DHT22;9256;52.236;5.712;2023-08-01T08:09:34;17.60;99.90
18260;DHT22;9256;52.236;5.712;2023-08-01T08:12:07;17.50;99.90
18260;DHT22;9256;52.236;5.712;2023-08-01T08:14:35;17.50;99.90
18260;DHT22;9256;52.236;5.712;2023-08-01T08:17:04;17.40;99.90
18260;DHT22;9256;52.236;5.712;2023-08-01T08:19:31;17.40;99.90
18260;DHT22;9256;52.236;5.712;2023-08-01T08:21:58;17.50;99.90
18260;DHT22;9256;52.236;5.712;2023-08-01T08:24:26;17.80;99.90
18260;DHT22;9256;52.236;5.712;2023-08-01T08:26:53;17.90;99.90
18260;DHT22;9256;52.236;5.712;2023-08-01T08:29:20;17.90;99.90
18260;DHT22;9256;52.236;5.712;2023-08-01T08:31:48;18.30;99.90
18260;DHT22;9256;52.236;5.712;2023-08-01T08:34:15;18.60;99.90
18260;DHT22;9256;52.236;5.712;2023-08-01T08:36:42;18.70;99.90
18260;DHT22;9256;52.236;5.712;2023-08-01T08:39:09;18.70;99.90
18260;DHT22;9256;52.236;5.712;2023-08-01T08:41:38;18.50;99.90
18260;DHT22;9256;52.236;5.712;2023-08-01T08:44:10;18.20;99.90
18260;DHT22;9256;52.236;5.712;2023-08-01T08:46:41;17.80;99.90
18260;DHT22;9256;52.236;5.712;2023-08-01T08:49:10;17.60;99.90
18260;DHT22;9256;52.236;5.712;2023-08-01T08:51:37;17.50;99.90
18260;DHT22;9256;52.236;5.712;2023-08-01T08:54:05;17.70;99.90
18260;DHT22;9256;52.236;5.712;2023-08-01T08:56:33;18.10;99.90
18260;DHT22;9256;52.236;5.712;2023-08-01T08:59:01;18.40;99.90
18260;DHT22;9256;52.236;5.712;2023-08-01T09:01:28;18.80;99.90
18260;DHT22;9256;52.236;5.712;2023-08-01T09:03:56;18.90;99.90
18260;DHT22;9256;52.236;5.712;2023-08-01T09:06:28;19.10;99.90
18260;DHT22;9256;52.236;5.712;2023-08-01T09:09:02;19.40;99.90
18260;DHT22;9256;52.236;5.712;2023-08-01T09:11:38;19.70;99.90
18260;DHT22;9256;52.236;5.712;2023-08-01T09:14:05;19.80;99.90
18260;DHT22;9256;52.236;5.712;2023-08-01T09:16:33;19.80;99.90
18260;DHT22;9256;52.236;5.712;2023-08-01T09:19:00;19.70;99.90
18260;DHT22;9256;52.236;5.712;2023-08-01T09:21:31;19.30;99.90
18260;DHT22;9256;52.236;5.712;2023-08-01T09:24:08;18.70;99.90
18260;DHT22;9256;52.236;5.712;2023-08-01T09:26:35;18.60;99.90
18260;DHT22;9256;52.236;5.712;2023-08-01T09:29:02;18.50;99.90
18260;DHT22;9256;52.236;5.712;2023-08-01T09:31:30;18.60;99.90
18260;DHT22;9256;52.236;5.712;2023-08-01T09:33:57;18.60;99.90
18260;DHT22;9256;52.236;5.712;2023-08-01T09:36:24;18.50;99.90
18260;DHT22;9256;52.236;5.712;2023-08-01T09:38:58;18.50;99.90
18260;DHT22;9256;52.236;5.712;2023-08-01T09:41:25;19.00;99.90
18260;DHT22;9256;52.236;5.712;2023-08-01T09:43:52;19.30;99.90
18260;DHT22;9256;52.236;5.712;2023-08-01T09:46:19;19.60;99.90
18260;DHT22;9256;52.236;5.712;2023-08-01T09:48:46;19.60;99.90
18260;DHT22;9256;52.236;5.712;2023-08-01T09:51:14;19.70;99.90
18260;DHT22;9256;52.236;5.712;2023-08-01T09:53:50;19.80;99.90
18260;DHT22;9256;52.236;5.712;2023-08-01T09:56:21;19.90;99.90
18260;DHT22;9256;52.236;5.712;2023-08-01T09:58:49;19.90;99.90
18260;DHT22;9256;52.236;5.712;2023-08-01T10:01:18;20.00;99.90
18260;DHT22;9256;52.236;5.712;2023-08-01T10:03:47;19.90;99.90
18260;DHT22;9256;52.236;5.712;2023-08-01T10:06:18;19.70;99.90
18260;DHT22;9256;52.236;5.712;2023-08-01T10:08:46;19.60;99.90
18260;DHT22;9256;52.236;5.712;2023-08-01T10:11:17;19.90;99.90
18260;DHT22;9256;52.236;5.712;2023-08-01T10:13:46;20.10;99.90
18260;DHT22;9256;52.236;5.712;2023-08-01T10:16:15;19.80;99.90
18260;DHT22;9256;52.236;5.712;2023-08-01T10:18:42;19.50;99.90
18260;DHT22;9256;52.236;5.712;2023-08-01T10:21:13;19.20;99.90
18260;DHT22;9256;52.236;5.712;2023-08-01T10:23:41;19.10;99.90
18260;DHT22;9256;52.236;5.712;2023-08-01T10:26:09;19.50;99.90
18260;DHT22;9256;52.236;5.712;2023-08-01T10:28:38;19.70;99.90
18260;DHT22;9256;52.236;5.712;2023-08-01T10:31:14;19.70;99.90
18260;DHT22;9256;52.236;5.712;2023-08-01T10:33:43;19.80;99.90
18260;DHT22;9256;52.236;5.712;2023-08-01T10:36:15;19.90;99.90
18260;DHT22;9256;52.236;5.712;2023-08-01T10:38:49;20.20;99.90
18260;DHT22;9256;52.236;5.712;2023-08-01T10:41:26;20.60;99.90
18260;DHT22;9256;52.236;5.712;2023-08-01T10:44:05;20.90;99.90
18260;DHT22;9256;52.236;5.712;2023-08-01T10:46:51;20.70;99.90
18260;DHT22;9256;52.236;5.712;2023-08-01T10:49:19;20.80;99.90
18260;DHT22;9256;52.236;5.712;2023-08-01T10:51:47;20.50;99.90
18260;DHT22;9256;52.236;5.712;2023-08-01T10:54:21;20.60;99.90
18260;DHT22;9256;52.236;5.712;2023-08-01T10:56:49;20.70;99.90
18260;DHT22;9256;52.236;5.712;2023-08-01T10:59:17;20.90;99.90
18260;DHT22;9256;52.236;5.712;2023-08-01T11:01:48;21.10;99.90
18260;DHT22;9256;52.236;5.712;2023-08-01T11:04:16;21.10;99.90
18260;DHT22;9256;52.236;5.712;2023-08-01T11:06:47;21.20;99.90
18260;DHT22;9256;52.236;5.712;2023-08-01T11:09:19;21.20;99.90
18260;DHT22;9256;52.236;5.712;2023-08-01T11:11:48;20.70;99.90
18260;DHT22;9256;52.236;5.712;2023-08-01T11:14:16;20.10;99.90
18260;DHT22;9256;52.236;5.712;2023-08-01T11:16:43;20.00;99.90
18260;DHT22;9256;52.236;5.712;2023-08-01T11:19:25;19.90;99.90
18260;DHT22;9256;52.236;5.712;2023-08-01T11:21:54;19.70;99.90
18260;DHT22;9256;52.236;5.712;2023-08-01T11:24:23;19.50;99.90
18260;DHT22;9256;52.236;5.712;2023-08-01T11:26:51;19.50;99.90
18260;DHT22;9256;52.236;5.712;2023-08-01T11:29:19;19.80;99.90
18260;DHT22;9256;52.236;5.712;2023-08-01T11:31:53;20.10;99.90
18260;DHT22;9256;52.236;5.712;2023-08-01T11:34:20;20.40;99.90
18260;DHT22;9256;52.236;5.712;2023-08-01T11:36:49;20.40;99.90
18260;DHT22;9256;52.236;5.712;2023-08-01T11:39:17;20.20;99.90
18260;DHT22;9256;52.236;5.712;2023-08-01T11:41:45;20.20;99.90
18260;DHT22;9256;52.236;5.712;2023-08-01T11:44:12;20.30;99.90
18260;DHT22;9256;52.236;5.712;2023-08-01T11:46:39;20.60;99.90
18260;DHT22;9256;52.236;5.712;2023-08-01T11:49:07;20.80;99.90
18260;DHT22;9256;52.236;5.712;2023-08-01T11:51:39;20.50;99.90
18260;DHT22;9256;52.236;5.712;2023-08-01T11:54:07;20.20;99.90
18260;DHT22;9256;52.236;5.712;2023-08-01T11:56:37;20.60;99.90
18260;DHT22;9256;52.236;5.712;2023-08-01T11:59:10;20.90;99.90
18260;DHT22;9256;52.236;5.712;2023-08-01T12:01:38;20.50;99.90
18260;DHT22;9256;52.236;5.712;2023-08-01T12:04:06;20.30;99.90
18260;DHT22;9256;52.236;5.712;2023-08-01T12:06:33;20.40;99.90
18260;DHT22;9256;52.236;5.712;2023-08-01T12:09:09;20.90;99.90
18260;DHT22;9256;52.236;5.712;2023-08-01T12:11:36;21.00;99.90
18260;DHT22;9256;52.236;5.712;2023-08-01T12:14:05;21.20;99.90
18260;DHT22;9256;52.236;5.712;2023-08-01T12:16:35;20.80;99.90
18260;DHT22;9256;52.236;5.712;2023-08-01T12:19:02;20.40;99.90
18260;DHT22;9256;52.236;5.712;2023-08-01T12:21:30;20.10;99.90
18260;DHT22;9256;52.236;5.712;2023-08-01T12:23:57;20.20;99.90
18260;DHT22;9256;52.236;5.712;2023-08-01T12:26:26;20.80;99.90
18260;DHT22;9256;52.236;5.712;2023-08-01T12:28:53;21.10;99.90
18260;DHT22;9256;52.236;5.712;2023-08-01T12:31:21;21.10;99.90
18260;DHT22;9256;52.236;5.712;2023-08-01T12:33:48;21.10;99.90
18260;DHT22;9256;52.236;5.712;2023-08-01T12:36:16;21.10;99.90
18260;DHT22;9256;52.236;5.712;2023-08-01T12:38:43;21.60;99.90
18260;DHT22;9256;52.236;5.712;2023-08-01T12:41:10;22.10;99.90
18260;DHT22;9256;52.236;5.712;2023-08-01T12:43:38;22.40;99.90
18260;DHT22;9256;52.236;5.712;2023-08-01T12:46:05;21.90;99.90
18260;DHT22;9256;52.236;5.712;2023-08-01T12:48:32;21.40;99.90
18260;DHT22;9256;52.236;5.712;2023-08-01T12:50:59;21.10;99.90
18260;DHT22;9256;52.236;5.712;2023-08-01T12:53:26;21.70;99.90
18260;DHT22;9256;52.236;5.712;2023-08-01T12:55:53;22.90;99.90
18260;DHT22;9256;52.236;5.712;2023-08-01T12:58:20;22.90;99.90
18260;DHT22;9256;52.236;5.712;2023-08-01T13:00:48;22.70;99.90
18260;DHT22;9256;52.236;5.712;2023-08-01T13:03:15;23.20;99.90
18260;DHT22;9256;52.236;5.712;2023-08-01T13:05:42;23.30;99.90
18260;DHT22;9256;52.236;5.712;2023-08-01T13:08:09;23.20;99.90
18260;DHT22;9256;52.236;5.712;2023-08-01T13:10:37;23.20;99.90
18260;DHT22;9256;52.236;5.712;2023-08-01T13:13:05;24.20;99.90
18260;DHT22;9256;52.236;5.712;2023-08-01T13:15:32;24.60;99.90
18260;DHT22;9256;52.236;5.712;2023-08-01T13:18:00;23.70;99.90
18260;DHT22;9256;52.236;5.712;2023-08-01T13:20:27;22.60;99.90
18260;DHT22;9256;52.236;5.712;2023-08-01T13:22:54;22.80;99.90
18260;DHT22;9256;52.236;5.712;2023-08-01T13:25:21;23.80;99.90
18260;DHT22;9256;52.236;5.712;2023-08-01T13:27:48;23.10;99.90
18260;DHT22;9256;52.236;5.712;2023-08-01T13:30:15;22.00;99.90
18260;DHT22;9256;52.236;5.712;2023-08-01T13:32:43;20.80;99.90
18260;DHT22;9256;52.236;5.712;2023-08-01T13:35:12;19.80;99.90
18260;DHT22;9256;52.236;5.712;2023-08-01T13:37:39;19.10;99.90
18260;DHT22;9256;52.236;5.712;2023-08-01T13:40:07;18.60;99.90
18260;DHT22;9256;52.236;5.712;2023-08-01T13:42:34;18.30;99.90
18260;DHT22;9256;52.236;5.712;2023-08-01T13:45:01;18.30;99.90
18260;DHT22;9256;52.236;5.712;2023-08-01T13:47:28;18.30;99.90
18260;DHT22;9256;52.236;5.712;2023-08-01T13:49:55;18.40;99.90
18260;DHT22;9256;52.236;5.712;2023-08-01T13:52:23;18.60;99.90
18260;DHT22;9256;52.236;5.712;2023-08-01T13:54:50;18.90;99.90
18260;DHT22;9256;52.236;5.712;2023-08-01T13:57:17;19.30;99.90
18260;DHT22;9256;52.236;5.712;2023-08-01T13:59:44;19.70;99.90
18260;DHT22;9256;52.236;5.712;2023-08-01T14:02:11;20.20;99.90
18260;DHT22;9256;52.236;5.712;2023-08-01T14:04:38;21.20;99.90
18260;DHT22;9256;52.236;5.712;2023-08-01T14:07:05;22.10;99.90
18260;DHT22;9256;52.236;5.712;2023-08-01T14:09:33;22.30;99.90
18260;DHT22;9256;52.236;5.712;2023-08-01T14:12:02;22.10;99.90
18260;DHT22;9256;52.236;5.712;2023-08-01T14:14:28;22.00;99.90
18260;DHT22;9256;52.236;5.712;2023-08-01T14:16:55;21.50;99.90
18260;DHT22;9256;52.236;5.712;2023-08-01T14:19:22;21.00;99.90
18260;DHT22;9256;52.236;5.712;2023-08-01T14:21:54;20.30;99.90
18260;DHT22;9256;52.236;5.712;2023-08-01T14:24:21;19.70;99.90
18260;DHT22;9256;52.236;5.712;2023-08-01T14:26:50;19.50;99.90
18260;DHT22;9256;52.236;5.712;2023-08-01T14:29:17;18.80;99.90
18260;DHT22;9256;52.236;5.712;2023-08-01T14:31:47;18.40;99.90
18260;DHT22;9256;52.236;5.712;2023-08-01T14:34:14;18.00;99.90
18260;DHT22;9256;52.236;5.712;2023-08-01T14:36:41;18.20;99.90
18260;DHT22;9256;52.236;5.712;2023-08-01T14:39:08;18.20;99.90
18260;DHT22;9256;52.236;5.712;2023-08-01T14:41:35;18.10;99.90
18260;DHT22;9256;52.236;5.712;2023-08-01T14:44:04;17.90;99.90
18260;DHT22;9256;52.236;5.712;2023-08-01T14:46:31;17.90;99.90
18260;DHT22;9256;52.236;5.712;2023-08-01T14:48:58;17.80;99.90
18260;DHT22;9256;52.236;5.712;2023-08-01T14:51:24;17.90;99.90
18260;DHT22;9256;52.236;5.712;2023-08-01T14:53:51;18.20;99.90
18260;DHT22;9256;52.236;5.712;2023-08-01T14:56:18;18.40;99.90
18260;DHT22;9256;52.236;5.712;2023-08-01T14:58:45;18.70;99.90
18260;DHT22;9256;52.236;5.712;2023-08-01T15:01:14;19.00;99.90
18260;DHT22;9256;52.236;5.712;2023-08-01T15:03:42;19.40;99.90
18260;DHT22;9256;52.236;5.712;2023-08-01T15:06:09;19.60;99.90
18260;DHT22;9256;52.236;5.712;2023-08-01T15:08:38;19.40;99.90
18260;DHT22;9256;52.236;5.712;2023-08-01T15:11:05;19.10;99.90
18260;DHT22;9256;52.236;5.712;2023-08-01T15:13:32;18.70;99.90
18260;DHT22;9256;52.236;5.712;2023-08-01T15:15:59;18.50;99.90
18260;DHT22;9256;52.236;5.712;2023-08-01T15:18:28;18.00;99.90
18260;DHT22;9256;52.236;5.712;2023-08-01T15:20:55;17.70;99.90
18260;DHT22;9256;52.236;5.712;2023-08-01T15:23:22;17.40;99.90
18260;DHT22;9256;52.236;5.712;2023-08-01T15:25:53;17.20;99.90
18260;DHT22;9256;52.236;5.712;2023-08-01T15:28:21;16.90;99.90
18260;DHT22;9256;52.236;5.712;2023-08-01T15:30:48;16.70;99.90
18260;DHT22;9256;52.236;5.712;2023-08-01T15:33:16;16.70;99.90
18260;DHT22;9256;52.236;5.712;2023-08-01T15:35:44;16.80;99.90
18260;DHT22;9256;52.236;5.712;2023-08-01T15:38:11;17.00;99.90
18260;DHT22;9256;52.236;5.712;2023-08-01T15:40:38;17.20;99.90
18260;DHT22;9256;52.236;5.712;2023-08-01T15:43:05;17.40;99.90
18260;DHT22;9256;52.236;5.712;2023-08-01T15:45:32;17.50;99.90
18260;DHT22;9256;52.236;5.712;2023-08-01T15:47:59;17.50;99.90